sensor_id;sensor_type;location;lat;lon;timestamp;pressure;altitude;pressure_sealevel;temperature;humidity
7986;BME280;4038;42.612;23.066;2023-07-31T00:01:00;92798.25;;;34.65;36.98
7986;BME280;4038;42.612;23.066;2023-07-31T00:03:25;92798.59;;;34.75;36.99
7986;BME280;4038;42.612;23.066;2023-07-31T00:05:50;92797.97;;;34.13;38.19
7986;BME280;4038;42.612;23.066;2023-07-31T00:08:16;92789.69;;;34.21;38.08
7986;BME280;4038;42.612;23.066;2023-07-31T00:10:41;92790.84;;;34.56;37.63
7986;BME280;4038;42.612;23.066;2023-07-31T00:13:07;92785.69;;;34.08;38.01
7986;BME280;4038;42.612;23.066;2023-07-31T00:15:32;92784.72;;;34.65;37.16
7986;BME280;4038;42.612;23.066;2023-07-31T00:17:57;92785.66;;;34.06;38.31
7986;BME280;4038;42.612;23.066;2023-07-31T00:20:23;92766.66;;;35.02;36.73
7986;BME280;4038;42.612;23.066;2023-07-31T00:22:48;92767.34;;;34.55;37.25
7986;BME280;4038;42.612;23.066;2023-07-31T00:25:13;92764.69;;;33.56;39.57
7986;BME280;4038;42.612;23.066;2023-07-31T00:27:39;92761.03;;;32.97;40.09
7986;BME280;4038;42.612;23.066;2023-07-31T00:30:05;92750.22;;;33.50;39.33
7986;BME280;4038;42.612;23.066;2023-07-31T00:32:30;92753.69;;;33.47;39.18
7986;BME280;4038;42.612;23.066;2023-07-31T00:34:56;92759.09;;;34.65;37.09
7986;BME280;4038;42.612;23.066;2023-07-31T00:37:21;92755.59;;;34.89;36.27
7986;BME280;4038;42.612;23.066;2023-07-31T00:39:46;92761.69;;;33.92;37.86
7986;BME280;4038;42.612;23.066;2023-07-31T00:42:12;92761.84;;;33.56;38.69
7986;BME280;4038;42.612;23.066;2023-07-31T00:44:37;92767.41;;;33.94;38.23
7986;BME280;4038;42.612;23.066;2023-07-31T00:47:03;92759.22;;;33.62;38.75
7986;BME280;4038;42.612;23.066;2023-07-31T00:49:28;92766.34;;;33.83;38.36
7986;BME280;4038;42.612;23.066;2023-07-31T00:51:54;92761.19;;;35.08;36.13
7986;BME280;4038;42.612;23.066;2023-07-31T00:54:19;92752.25;;;34.96;36.48
7986;BME280;4038;42.612;23.066;2023-07-31T00:56:46;92752.75;;;36.71;33.84
7986;BME280;4038;42.612;23.066;2023-07-31T00:59:13;92752.63;;;35.08;35.69
7986;BME280;4038;42.612;23.066;2023-07-31T01:01:40;92747.25;;;36.22;33.88
7986;BME280;4038;42.612;23.066;2023-07-31T01:04:05;92752.19;;;35.68;34.44
7986;BME280;4038;42.612;23.066;2023-07-31T01:06:58;92740.97;;;36.27;34.74
7986;BME280;4038;42.612;23.066;2023-07-31T01:12:14;92748.91;;;34.58;37.66
7986;BME280;4038;42.612;23.066;2023-07-31T01:14:39;92748.00;;;34.52;36.82
7986;BME280;4038;42.612;23.066;2023-07-31T01:17:05;92749.97;;;34.03;37.79
7986;BME280;4038;42.612;23.066;2023-07-31T01:19:31;92748.28;;;33.35;39.48
7986;BME280;4038;42.612;23.066;2023-07-31T01:27:34;92753.19;;;34.35;37.64
7986;BME280;4038;42.612;23.066;2023-07-31T01:32:29;92743.50;;;32.47;41.33
7986;BME280;4038;42.612;23.066;2023-07-31T01:34:56;92744.94;;;32.83;41.21
7986;BME280;4038;42.612;23.066;2023-07-31T01:37:28;92745.59;;;33.02;40.96
7986;BME280;4038;42.612;23.066;2023-07-31T01:39:54;92749.00;;;31.74;43.06
7986;BME280;4038;42.612;23.066;2023-07-31T01:42:20;92753.78;;;31.54;43.18
7986;BME280;4038;42.612;23.066;2023-07-31T01:44:45;92751.69;;;32.39;42.13
7986;BME280;4038;42.612;23.066;2023-07-31T01:47:11;92753.47;;;33.03;40.38
7986;BME280;4038;42.612;23.066;2023-07-31T01:49:36;92747.97;;;34.50;37.92
7986;BME280;4038;42.612;23.066;2023-07-31T01:52:01;92760.22;;;33.71;38.94
7986;BME280;4038;42.612;23.066;2023-07-31T01:54:27;92756.28;;;34.00;38.45
7986;BME280;4038;42.612;23.066;2023-07-31T01:56:52;92761.97;;;33.60;38.80
7986;BME280;4038;42.612;23.066;2023-07-31T01:59:17;92757.09;;;34.24;37.74
7986;BME280;4038;42.612;23.066;2023-07-31T02:01:43;92756.59;;;34.10;38.14
7986;BME280;4038;42.612;23.066;2023-07-31T02:04:08;92762.22;;;34.08;38.08
7986;BME280;4038;42.612;23.066;2023-07-31T02:06:34;92751.91;;;33.18;39.63
7986;BME280;4038;42.612;23.066;2023-07-31T02:08:59;92754.69;;;33.75;38.91
7986;BME280;4038;42.612;23.066;2023-07-31T02:11:25;92751.56;;;34.08;38.24
7986;BME280;4038;42.612;23.066;2023-07-31T02:13:50;92742.16;;;33.23;39.70
7986;BME280;4038;42.612;23.066;2023-07-31T02:16:15;92758.03;;;33.69;38.68
7986;BME280;4038;42.612;23.066;2023-07-31T02:18:41;92750.81;;;34.28;37.92
7986;BME280;4038;42.612;23.066;2023-07-31T02:21:06;92753.63;;;34.06;38.35
7986;BME280;4038;42.612;23.066;2023-07-31T02:23:31;92758.31;;;33.97;38.71
7986;BME280;4038;42.612;23.066;2023-07-31T02:25:57;92765.69;;;33.85;38.59
7986;BME280;4038;42.612;23.066;2023-07-31T02:28:22;92754.03;;;34.62;37.10
7986;BME280;4038;42.612;23.066;2023-07-31T02:30:50;92750.47;;;35.82;35.68
7986;BME280;4038;42.612;23.066;2023-07-31T02:33:15;92754.03;;;35.57;35.48
7986;BME280;4038;42.612;23.066;2023-07-31T02:35:41;92753.78;;;34.99;36.09
7986;BME280;4038;42.612;23.066;2023-07-31T02:38:07;92767.13;;;34.71;36.64
7986;BME280;4038;42.612;23.066;2023-07-31T02:40:32;92767.88;;;34.95;36.38
7986;BME280;4038;42.612;23.066;2023-07-31T02:42:57;92771.06;;;35.05;36.00
7986;BME280;4038;42.612;23.066;2023-07-31T02:45:23;92768.63;;;35.69;35.30
7986;BME280;4038;42.612;23.066;2023-07-31T02:47:48;92775.88;;;35.22;35.89
7986;BME280;4038;42.612;23.066;2023-07-31T02:50:13;92768.41;;;34.44;36.98
7986;BME280;4038;42.612;23.066;2023-07-31T02:52:39;92769.28;;;34.48;37.20
7986;BME280;4038;42.612;23.066;2023-07-31T02:55:05;92771.19;;;33.79;38.75
7986;BME280;4038;42.612;23.066;2023-07-31T02:57:31;92777.47;;;35.06;36.02
7986;BME280;4038;42.612;23.066;2023-07-31T02:59:56;92782.34;;;36.00;34.83
7986;BME280;4038;42.612;23.066;2023-07-31T03:02:22;92774.03;;;35.33;35.08
7986;BME280;4038;42.612;23.066;2023-07-31T03:04:47;92772.47;;;36.61;33.83
7986;BME280;4038;42.612;23.066;2023-07-31T03:07:12;92769.66;;;36.63;33.71
7986;BME280;4038;42.612;23.066;2023-07-31T03:09:38;92773.63;;;37.10;33.53
7986;BME280;4038;42.612;23.066;2023-07-31T03:12:03;92769.00;;;34.40;37.31
7986;BME280;4038;42.612;23.066;2023-07-31T03:14:28;92783.59;;;32.92;40.29
7986;BME280;4038;42.612;23.066;2023-07-31T03:16:54;92767.94;;;34.30;37.69
7986;BME280;4038;42.612;23.066;2023-07-31T03:19:19;92771.13;;;35.07;36.21
7986;BME280;4038;42.612;23.066;2023-07-31T03:21:45;92776.63;;;36.56;33.75
7986;BME280;4038;42.612;23.066;2023-07-31T03:24:10;92775.25;;;35.52;34.43
7986;BME280;4038;42.612;23.066;2023-07-31T03:26:37;92777.50;;;36.33;33.21
7986;BME280;4038;42.612;23.066;2023-07-31T03:29:03;92788.38;;;36.68;33.41
7986;BME280;4038;42.612;23.066;2023-07-31T03:31:28;92787.03;;;35.16;35.20
7986;BME280;4038;42.612;23.066;2023-07-31T03:33:54;92786.50;;;37.11;32.46
7986;BME280;4038;42.612;23.066;2023-07-31T03:36:19;92790.09;;;36.82;33.18
7986;BME280;4038;42.612;23.066;2023-07-31T03:38:46;92798.69;;;36.82;33.28
7986;BME280;4038;42.612;23.066;2023-07-31T03:41:11;92796.06;;;34.85;36.42
7986;BME280;4038;42.612;23.066;2023-07-31T03:43:37;92799.06;;;36.40;33.70
7986;BME280;4038;42.612;23.066;2023-07-31T03:46:02;92800.09;;;36.23;34.39
7986;BME280;4038;42.612;23.066;2023-07-31T03:48:28;92806.25;;;36.41;33.91
7986;BME280;4038;42.612;23.066;2023-07-31T03:50:54;92807.56;;;36.36;34.44
7986;BME280;4038;42.612;23.066;2023-07-31T03:53:19;92810.28;;;36.32;34.48
7986;BME280;4038;42.612;23.066;2023-07-31T03:55:45;92806.31;;;35.18;36.54
7986;BME280;4038;42.612;23.066;2023-07-31T03:58:11;92810.09;;;35.48;35.75
7986;BME280;4038;42.612;23.066;2023-07-31T04:00:36;92809.78;;;36.67;33.81
7986;BME280;4038;42.612;23.066;2023-07-31T04:03:01;92803.53;;;34.72;36.41
7986;BME280;4038;42.612;23.066;2023-07-31T04:05:27;92804.75;;;36.96;33.12
7986;BME280;4038;42.612;23.066;2023-07-31T04:07:52;92805.91;;;36.01;34.86
7986;BME280;4038;42.612;23.066;2023-07-31T04:10:17;92813.44;;;35.90;35.27
7986;BME280;4038;42.612;23.066;2023-07-31T04:12:43;92810.94;;;35.77;35.18
7986;BME280;4038;42.612;23.066;2023-07-31T04:15:08;92824.25;;;37.05;33.35
7986;BME280;4038;42.612;23.066;2023-07-31T04:17:34;92822.75;;;35.67;35.46
7986;BME280;4038;42.612;23.066;2023-07-31T04:19:59;92823.06;;;36.57;34.10
7986;BME280;4038;42.612;23.066;2023-07-31T04:22:25;92826.81;;;35.60;35.61
7986;BME280;4038;42.612;23.066;2023-07-31T04:24:50;92830.19;;;36.02;34.71
7986;BME280;4038;42.612;23.066;2023-07-31T04:27:16;92836.47;;;34.58;36.88
7986;BME280;4038;42.612;23.066;2023-07-31T04:29:41;92822.91;;;34.78;36.55
7986;BME280;4038;42.612;23.066;2023-07-31T04:32:08;92831.38;;;34.13;38.04
7986;BME280;4038;42.612;23.066;2023-07-31T04:34:33;92825.13;;;35.03;35.89
7986;BME280;4038;42.612;23.066;2023-07-31T04:36:59;92828.44;;;34.96;36.03
7986;BME280;4038;42.612;23.066;2023-07-31T04:39:24;92830.19;;;34.20;37.30
7986;BME280;4038;42.612;23.066;2023-07-31T04:41:50;92828.28;;;35.61;34.84
7986;BME280;4038;42.612;23.066;2023-07-31T04:44:15;92826.53;;;35.50;35.45
7986;BME280;4038;42.612;23.066;2023-07-31T04:46:40;92823.38;;;35.40;35.29
7986;BME280;4038;42.612;23.066;2023-07-31T04:49:06;92821.06;;;35.10;35.76
7986;BME280;4038;42.612;23.066;2023-07-31T04:51:31;92819.13;;;34.71;36.40
7986;BME280;4038;42.612;23.066;2023-07-31T04:53:56;92824.78;;;35.15;35.54
7986;BME280;4038;42.612;23.066;2023-07-31T04:56:22;92823.81;;;35.54;35.48
7986;BME280;4038;42.612;23.066;2023-07-31T04:58:47;92826.91;;;36.39;33.83
7986;BME280;4038;42.612;23.066;2023-07-31T05:01:13;92819.16;;;35.90;34.54
7986;BME280;4038;42.612;23.066;2023-07-31T05:03:38;92819.97;;;35.95;34.66
7986;BME280;4038;42.612;23.066;2023-07-31T05:06:03;92820.06;;;36.51;33.32
7986;BME280;4038;42.612;23.066;2023-07-31T05:08:29;92830.53;;;36.42;33.05
7986;BME280;4038;42.612;23.066;2023-07-31T05:10:54;92826.91;;;36.39;33.83
7986;BME280;4038;42.612;23.066;2023-07-31T05:13:20;92821.56;;;35.74;34.51
7986;BME280;4038;42.612;23.066;2023-07-31T05:15:45;92823.03;;;35.28;35.46
7986;BME280;4038;42.612;23.066;2023-07-31T05:18:10;92825.97;;;36.87;33.32
7986;BME280;4038;42.612;23.066;2023-07-31T05:20:36;92829.56;;;36.06;33.69
7986;BME280;4038;42.612;23.066;2023-07-31T05:23:01;92818.56;;;34.99;34.93
7986;BME280;4038;42.612;23.066;2023-07-31T05:25:27;92830.25;;;34.22;36.04
7986;BME280;4038;42.612;23.066;2023-07-31T05:27:52;92839.91;;;34.54;34.91
7986;BME280;4038;42.612;23.066;2023-07-31T05:30:18;92827.28;;;33.58;36.81
7986;BME280;4038;42.612;23.066;2023-07-31T05:32:43;92825.69;;;33.53;36.77
7986;BME280;4038;42.612;23.066;2023-07-31T05:35:09;92827.38;;;33.23;37.56
7986;BME280;4038;42.612;23.066;2023-07-31T05:37:34;92825.53;;;32.58;37.91
7986;BME280;4038;42.612;23.066;2023-07-31T05:39:59;92829.19;;;32.97;37.22
7986;BME280;4038;42.612;23.066;2023-07-31T05:42:25;92826.09;;;33.26;37.37
7986;BME280;4038;42.612;23.066;2023-07-31T05:44:50;92824.25;;;32.79;37.34
7986;BME280;4038;42.612;23.066;2023-07-31T05:47:16;92829.94;;;32.79;37.43
7986;BME280;4038;42.612;23.066;2023-07-31T05:49:41;92826.44;;;32.99;36.66
7986;BME280;4038;42.612;23.066;2023-07-31T05:52:07;92812.19;;;32.10;37.84
7986;BME280;4038;42.612;23.066;2023-07-31T05:54:32;92830.25;;;32.34;37.92
7986;BME280;4038;42.612;23.066;2023-07-31T05:56:58;92826.78;;;32.71;37.18
7986;BME280;4038;42.612;23.066;2023-07-31T05:59:23;92826.28;;;32.59;37.31
7986;BME280;4038;42.612;23.066;2023-07-31T06:01:49;92821.22;;;31.89;37.41
7986;BME280;4038;42.612;23.066;2023-07-31T06:04:14;92830.78;;;31.97;37.45
7986;BME280;4038;42.612;23.066;2023-07-31T06:06:39;92825.31;;;31.86;37.45
7986;BME280;4038;42.612;23.066;2023-07-31T06:09:05;92822.44;;;32.17;37.05
7986;BME280;4038;42.612;23.066;2023-07-31T06:11:32;92814.56;;;32.15;36.69
7986;BME280;4038;42.612;23.066;2023-07-31T06:13:57;92833.31;;;31.42;37.95
7986;BME280;4038;42.612;23.066;2023-07-31T06:16:23;92832.47;;;34.67;33.13
7986;BME280;4038;42.612;23.066;2023-07-31T06:18:48;92828.91;;;36.91;29.71
7986;BME280;4038;42.612;23.066;2023-07-31T06:21:15;92826.78;;;36.91;29.57
7986;BME280;4038;42.612;23.066;2023-07-31T06:23:40;92835.25;;;36.06;30.14
7986;BME280;4038;42.612;23.066;2023-07-31T06:26:06;92825.41;;;34.68;31.70
7986;BME280;4038;42.612;23.066;2023-07-31T06:28:31;92830.75;;;35.01;30.97
7986;BME280;4038;42.612;23.066;2023-07-31T06:30:58;92816.94;;;34.70;32.16
7986;BME280;4038;42.612;23.066;2023-07-31T06:33:24;92832.78;;;33.92;32.46
7986;BME280;4038;42.612;23.066;2023-07-31T06:35:50;92833.25;;;33.66;32.95
7986;BME280;4038;42.612;23.066;2023-07-31T06:38:15;92840.28;;;34.03;32.16
7986;BME280;4038;42.612;23.066;2023-07-31T06:40:40;92841.94;;;34.10;31.98
7986;BME280;4038;42.612;23.066;2023-07-31T06:43:06;92840.50;;;34.51;31.53
7986;BME280;4038;42.612;23.066;2023-07-31T06:45:34;92837.28;;;35.28;30.47
7986;BME280;4038;42.612;23.066;2023-07-31T06:48:00;92835.38;;;33.46;32.91
7986;BME280;4038;42.612;23.066;2023-07-31T06:50:30;92839.88;;;33.16;33.12
7986;BME280;4038;42.612;23.066;2023-07-31T06:52:55;92838.69;;;33.98;31.80
7986;BME280;4038;42.612;23.066;2023-07-31T06:55:21;92838.56;;;35.70;29.37
7986;BME280;4038;42.612;23.066;2023-07-31T06:57:51;92829.00;;;36.37;28.66
7986;BME280;4038;42.612;23.066;2023-07-31T07:00:18;92833.47;;;36.72;28.10
7986;BME280;4038;42.612;23.066;2023-07-31T07:02:44;92824.50;;;35.29;29.76
7986;BME280;4038;42.612;23.066;2023-07-31T07:05:10;92833.47;;;36.18;28.45
7986;BME280;4038;42.612;23.066;2023-07-31T07:07:36;92829.72;;;36.65;28.29
7986;BME280;4038;42.612;23.066;2023-07-31T07:10:02;92827.94;;;36.24;28.43
7986;BME280;4038;42.612;23.066;2023-07-31T07:12:30;92828.66;;;35.26;30.17
7986;BME280;4038;42.612;23.066;2023-07-31T07:14:55;92830.03;;;36.22;28.66
7986;BME280;4038;42.612;23.066;2023-07-31T07:17:22;92829.91;;;37.33;27.39
7986;BME280;4038;42.612;23.066;2023-07-31T07:19:48;92830.19;;;39.92;24.55
7986;BME280;4038;42.612;23.066;2023-07-31T07:22:13;92836.19;;;39.58;25.17
7986;BME280;4038;42.612;23.066;2023-07-31T07:24:39;92825.56;;;38.74;25.93
7986;BME280;4038;42.612;23.066;2023-07-31T07:27:05;92820.38;;;40.11;24.43
7986;BME280;4038;42.612;23.066;2023-07-31T07:29:30;92825.91;;;40.59;24.57
7986;BME280;4038;42.612;23.066;2023-07-31T07:31:56;92828.75;;;39.91;25.27
7986;BME280;4038;42.612;23.066;2023-07-31T07:34:26;92824.28;;;42.66;22.44
7986;BME280;4038;42.612;23.066;2023-07-31T07:36:52;92827.47;;;37.53;27.91
7986;BME280;4038;42.612;23.066;2023-07-31T07:39:17;92829.25;;;37.69;27.54
7986;BME280;4038;42.612;23.066;2023-07-31T07:41:43;92831.13;;;38.26;26.48
7986;BME280;4038;42.612;23.066;2023-07-31T07:44:08;92822.53;;;37.90;26.88
7986;BME280;4038;42.612;23.066;2023-07-31T07:46:34;92834.03;;;36.13;28.44
7986;BME280;4038;42.612;23.066;2023-07-31T07:48:59;92844.06;;;37.27;27.66
7986;BME280;4038;42.612;23.066;2023-07-31T07:51:25;92835.31;;;38.21;26.19
7986;BME280;4038;42.612;23.066;2023-07-31T07:53:50;92831.56;;;35.75;28.44
7986;BME280;4038;42.612;23.066;2023-07-31T07:56:15;92828.69;;;36.81;27.79
7986;BME280;4038;42.612;23.066;2023-07-31T07:58:41;92836.97;;;37.62;26.40
7986;BME280;4038;42.612;23.066;2023-07-31T08:01:06;92837.19;;;37.40;26.24
7986;BME280;4038;42.612;23.066;2023-07-31T08:03:32;92847.50;;;39.46;24.25
7986;BME280;4038;42.612;23.066;2023-07-31T08:05:58;92853.75;;;38.90;25.29
7986;BME280;4038;42.612;23.066;2023-07-31T08:08:24;92843.66;;;37.11;27.26
7986;BME280;4038;42.612;23.066;2023-07-31T08:10:49;92843.41;;;37.61;26.97
7986;BME280;4038;42.612;23.066;2023-07-31T08:13:15;92840.09;;;35.73;29.06
7986;BME280;4038;42.612;23.066;2023-07-31T08:15:43;92852.50;;;37.53;26.31
7986;BME280;4038;42.612;23.066;2023-07-31T08:18:10;92853.69;;;40.34;23.32
7986;BME280;4038;42.612;23.066;2023-07-31T08:20:37;92848.66;;;39.78;23.81
7986;BME280;4038;42.612;23.066;2023-07-31T08:23:02;92857.41;;;39.89;24.10
7986;BME280;4038;42.612;23.066;2023-07-31T08:25:28;92851.94;;;39.55;24.94
7986;BME280;4038;42.612;23.066;2023-07-31T08:27:53;92844.75;;;36.96;28.02
7986;BME280;4038;42.612;23.066;2023-07-31T08:30:19;92852.34;;;36.29;28.05
7986;BME280;4038;42.612;23.066;2023-07-31T08:32:44;92854.16;;;36.45;28.63
7986;BME280;4038;42.612;23.066;2023-07-31T08:35:10;92839.84;;;37.62;26.35
7986;BME280;4038;42.612;23.066;2023-07-31T08:37:37;92842.28;;;37.76;25.49
7986;BME280;4038;42.612;23.066;2023-07-31T08:40:03;92844.09;;;36.69;27.40
7986;BME280;4038;42.612;23.066;2023-07-31T08:42:29;92840.97;;;37.81;25.55
7986;BME280;4038;42.612;23.066;2023-07-31T08:44:55;92849.75;;;38.65;24.93
7986;BME280;4038;42.612;23.066;2023-07-31T08:47:21;92834.81;;;39.15;24.28
7986;BME280;4038;42.612;23.066;2023-07-31T08:49:47;92845.97;;;38.16;25.27
7986;BME280;4038;42.612;23.066;2023-07-31T08:52:13;92838.13;;;38.19;24.97
7986;BME280;4038;42.612;23.066;2023-07-31T08:54:39;92832.50;;;39.03;24.13
7986;BME280;4038;42.612;23.066;2023-07-31T08:57:06;92834.97;;;38.81;24.21
7986;BME280;4038;42.612;23.066;2023-07-31T08:59:34;92825.06;;;39.34;23.80
7986;BME280;4038;42.612;23.066;2023-07-31T09:02:06;92840.72;;;39.27;23.53
7986;BME280;4038;42.612;23.066;2023-07-31T09:04:33;92838.47;;;39.19;23.95
7986;BME280;4038;42.612;23.066;2023-07-31T09:07:01;92839.72;;;39.54;23.95
7986;BME280;4038;42.612;23.066;2023-07-31T09:09:32;92830.72;;;40.34;22.89
7986;BME280;4038;42.612;23.066;2023-07-31T09:11:58;92836.31;;;39.18;23.83
7986;BME280;4038;42.612;23.066;2023-07-31T09:14:27;92827.09;;;38.81;24.19
7986;BME280;4038;42.612;23.066;2023-07-31T09:16:57;92833.63;;;41.17;21.90
7986;BME280;4038;42.612;23.066;2023-07-31T09:19:34;92828.97;;;41.72;21.33
7986;BME280;4038;42.612;23.066;2023-07-31T09:22:02;92829.22;;;38.39;23.88
7986;BME280;4038;42.612;23.066;2023-07-31T09:24:29;92823.13;;;41.54;21.26
7986;BME280;4038;42.612;23.066;2023-07-31T09:26:56;92831.59;;;41.31;21.68
7986;BME280;4038;42.612;23.066;2023-07-31T09:29:23;92825.06;;;40.44;22.34
7986;BME280;4038;42.612;23.066;2023-07-31T09:31:50;92832.69;;;39.65;23.23
7986;BME280;4038;42.612;23.066;2023-07-31T09:34:16;92810.50;;;37.60;25.01
7986;BME280;4038;42.612;23.066;2023-07-31T09:36:50;92819.50;;;39.98;23.15
7986;BME280;4038;42.612;23.066;2023-07-31T09:39:18;92826.94;;;38.71;23.52
7986;BME280;4038;42.612;23.066;2023-07-31T09:41:54;92826.69;;;38.99;23.68
7986;BME280;4038;42.612;23.066;2023-07-31T09:44:20;92815.97;;;40.04;21.70
7986;BME280;4038;42.612;23.066;2023-07-31T09:46:46;92818.00;;;41.42;20.86
7986;BME280;4038;42.612;23.066;2023-07-31T09:49:13;92819.00;;;41.93;20.55
7986;BME280;4038;42.612;23.066;2023-07-31T09:51:40;92812.38;;;40.68;21.23
7986;BME280;4038;42.612;23.066;2023-07-31T09:54:12;92809.56;;;39.03;22.54
7986;BME280;4038;42.612;23.066;2023-07-31T09:56:44;92804.88;;;38.80;22.77
7986;BME280;4038;42.612;23.066;2023-07-31T09:59:18;92808.56;;;39.85;22.45
7986;BME280;4038;42.612;23.066;2023-07-31T10:01:45;92815.34;;;38.63;23.42
7986;BME280;4038;42.612;23.066;2023-07-31T10:04:13;92797.22;;;37.76;24.30
7986;BME280;4038;42.612;23.066;2023-07-31T10:06:40;92808.84;;;36.89;25.95
7986;BME280;4038;42.612;23.066;2023-07-31T10:09:09;92811.13;;;39.60;23.17
7986;BME280;4038;42.612;23.066;2023-07-31T10:11:38;92813.50;;;39.28;23.18
7986;BME280;4038;42.612;23.066;2023-07-31T10:14:07;92810.63;;;38.40;24.39
7986;BME280;4038;42.612;23.066;2023-07-31T10:16:33;92805.88;;;39.45;23.50
7986;BME280;4038;42.612;23.066;2023-07-31T10:19:00;92799.59;;;40.85;22.08
7986;BME280;4038;42.612;23.066;2023-07-31T10:21:27;92806.31;;;38.39;22.60
7986;BME280;4038;42.612;23.066;2023-07-31T10:23:54;92813.19;;;39.54;22.04
7986;BME280;4038;42.612;23.066;2023-07-31T10:26:23;92806.00;;;40.11;21.08
7986;BME280;4038;42.612;23.066;2023-07-31T10:28:52;92801.44;;;41.45;20.19
7986;BME280;4038;42.612;23.066;2023-07-31T10:31:18;92788.00;;;40.04;21.18
7986;BME280;4038;42.612;23.066;2023-07-31T10:33:44;92785.81;;;38.54;22.53
7986;BME280;4038;42.612;23.066;2023-07-31T10:38:40;92794.56;;;38.22;22.99
7986;BME280;4038;42.612;23.066;2023-07-31T10:41:09;92788.47;;;40.49;21.58
7986;BME280;4038;42.612;23.066;2023-07-31T10:43:39;92783.16;;;39.61;22.15
7986;BME280;4038;42.612;23.066;2023-07-31T10:46:09;92784.84;;;40.44;21.12
7986;BME280;4038;42.612;23.066;2023-07-31T10:48:37;92775.53;;;38.83;22.03
7986;BME280;4038;42.612;23.066;2023-07-31T10:51:09;92780.50;;;39.79;21.78
7986;BME280;4038;42.612;23.066;2023-07-31T10:53:38;92778.25;;;39.69;21.44
7986;BME280;4038;42.612;23.066;2023-07-31T10:56:09;92781.53;;;40.04;20.99
7986;BME280;4038;42.612;23.066;2023-07-31T10:58:36;92787.31;;;41.89;19.33
7986;BME280;4038;42.612;23.066;2023-07-31T11:01:03;92773.97;;;41.17;19.48
7986;BME280;4038;42.612;23.066;2023-07-31T11:03:46;92767.34;;;43.39;17.74
7986;BME280;4038;42.612;23.066;2023-07-31T11:06:13;92761.78;;;41.23;19.73
7986;BME280;4038;42.612;23.066;2023-07-31T11:08:43;92763.03;;;39.59;21.99
7986;BME280;4038;42.612;23.066;2023-07-31T11:11:11;92760.81;;;40.13;21.38
7986;BME280;4038;42.612;23.066;2023-07-31T11:13:48;92761.25;;;38.85;21.47
7986;BME280;4038;42.612;23.066;2023-07-31T11:16:26;92763.91;;;39.19;20.27
7986;BME280;4038;42.612;23.066;2023-07-31T11:18:52;92762.34;;;40.99;19.53
7986;BME280;4038;42.612;23.066;2023-07-31T11:21:20;92761.41;;;40.02;22.39
7986;BME280;4038;42.612;23.066;2023-07-31T11:23:51;92754.97;;;39.45;23.62
7986;BME280;4038;42.612;23.066;2023-07-31T11:26:17;92767.19;;;37.09;26.74
7986;BME280;4038;42.612;23.066;2023-07-31T11:28:46;92764.63;;;39.20;24.68
7986;BME280;4038;42.612;23.066;2023-07-31T11:31:12;92754.25;;;39.45;24.10
7986;BME280;4038;42.612;23.066;2023-07-31T11:33:37;92756.59;;;38.62;24.50
7986;BME280;4038;42.612;23.066;2023-07-31T11:36:03;92766.81;;;39.21;24.06
7986;BME280;4038;42.612;23.066;2023-07-31T11:41:00;92769.13;;;40.53;23.19
7986;BME280;4038;42.612;23.066;2023-07-31T11:43:28;92764.16;;;39.90;22.87
7986;BME280;4038;42.612;23.066;2023-07-31T11:46:01;92757.00;;;39.91;23.24
7986;BME280;4038;42.612;23.066;2023-07-31T11:48:35;92759.13;;;39.36;24.18
7986;BME280;4038;42.612;23.066;2023-07-31T11:51:05;92759.75;;;39.80;24.01
7986;BME280;4038;42.612;23.066;2023-07-31T11:53:35;92757.13;;;40.77;22.85
7986;BME280;4038;42.612;23.066;2023-07-31T11:56:02;92749.94;;;40.02;22.92
7986;BME280;4038;42.612;23.066;2023-07-31T11:58:31;92747.25;;;38.19;23.97
7986;BME280;4038;42.612;23.066;2023-07-31T12:00:58;92752.88;;;39.50;23.25
7986;BME280;4038;42.612;23.066;2023-07-31T12:03:23;92746.53;;;38.59;23.52
7986;BME280;4038;42.612;23.066;2023-07-31T12:05:49;92747.41;;;40.36;21.88
7986;BME280;4038;42.612;23.066;2023-07-31T12:08:14;92745.72;;;42.33;20.05
7986;BME280;4038;42.612;23.066;2023-07-31T12:10:41;92738.47;;;42.26;20.17
7986;BME280;4038;42.612;23.066;2023-07-31T12:13:11;92742.31;;;39.64;22.26
7986;BME280;4038;42.612;23.066;2023-07-31T12:18:10;92733.31;;;41.78;20.74
7986;BME280;4038;42.612;23.066;2023-07-31T12:20:44;92728.56;;;40.19;22.49
7986;BME280;4038;42.612;23.066;2023-07-31T12:23:21;92723.56;;;39.55;23.06
7986;BME280;4038;42.612;23.066;2023-07-31T12:26:09;92724.94;;;39.52;22.96
7986;BME280;4038;42.612;23.066;2023-07-31T12:28:40;92719.72;;;40.73;21.64
7986;BME280;4038;42.612;23.066;2023-07-31T12:31:09;92720.41;;;39.93;21.71
7986;BME280;4038;42.612;23.066;2023-07-31T12:33:35;92721.91;;;39.38;22.77
7986;BME280;4038;42.612;23.066;2023-07-31T12:36:03;92719.06;;;40.02;21.99
7986;BME280;4038;42.612;23.066;2023-07-31T12:38:30;92722.69;;;40.87;21.11
7986;BME280;4038;42.612;23.066;2023-07-31T12:40:55;92721.78;;;40.65;20.98
7986;BME280;4038;42.612;23.066;2023-07-31T12:43:20;92721.19;;;42.32;19.80
7986;BME280;4038;42.612;23.066;2023-07-31T12:45:46;92696.41;;;39.08;22.53
7986;BME280;4038;42.612;23.066;2023-07-31T12:48:12;92712.22;;;41.35;20.90
7986;BME280;4038;42.612;23.066;2023-07-31T12:50:38;92712.84;;;39.03;22.91
7986;BME280;4038;42.612;23.066;2023-07-31T12:53:04;92701.22;;;40.14;21.47
7986;BME280;4038;42.612;23.066;2023-07-31T12:55:30;92713.66;;;39.70;22.35
7986;BME280;4038;42.612;23.066;2023-07-31T12:57:56;92703.66;;;39.15;23.12
7986;BME280;4038;42.612;23.066;2023-07-31T13:00:22;92698.25;;;38.01;23.90
7986;BME280;4038;42.612;23.066;2023-07-31T13:02:47;92700.88;;;37.15;25.06
7986;BME280;4038;42.612;23.066;2023-07-31T13:05:13;92693.00;;;38.25;24.44
7986;BME280;4038;42.612;23.066;2023-07-31T13:07:39;92695.72;;;39.68;23.41
7986;BME280;4038;42.612;23.066;2023-07-31T13:10:06;92705.72;;;39.09;23.55
7986;BME280;4038;42.612;23.066;2023-07-31T13:12:31;92696.66;;;37.92;24.29
7986;BME280;4038;42.612;23.066;2023-07-31T13:14:57;92696.56;;;37.86;24.17
7986;BME280;4038;42.612;23.066;2023-07-31T13:17:22;92706.09;;;37.99;24.15
7986;BME280;4038;42.612;23.066;2023-07-31T13:19:48;92710.09;;;38.65;23.49
7986;BME280;4038;42.612;23.066;2023-07-31T13:22:13;92709.94;;;38.53;23.81
7986;BME280;4038;42.612;23.066;2023-07-31T13:24:39;92704.81;;;37.68;24.03